createdAt,value
2023-02-12T00:01:19.686Z,101889.34
2023-02-12T00:03:46.885Z,101884.28
2023-02-12T00:06:15.936Z,101882.59
2023-02-12T00:08:43.570Z,101880.09
2023-02-12T00:11:13.914Z,101873.38
2023-02-12T00:13:41.372Z,101889.44
2023-02-12T00:16:11.892Z,101897.94
2023-02-12T00:18:38.763Z,101886.84
2023-02-12T00:21:08.650Z,101879.25
2023-02-12T00:23:36.526Z,101887.72
2023-02-12T00:26:16.810Z,101888.53
2023-02-12T00:28:44.430Z,101882.56
2023-02-12T00:31:19.959Z,101892.69
2023-02-12T00:33:47.002Z,101891.88
2023-02-12T00:36:21.436Z,101890.16
2023-02-12T00:38:49.436Z,101887.66
2023-02-12T00:41:16.219Z,101884.28
2023-02-12T00:43:43.175Z,101890.19
2023-02-12T00:46:09.927Z,101896.16
2023-02-12T00:48:37.578Z,101891.13
2023-02-12T00:51:05.213Z,101874.13
2023-02-12T00:53:32.863Z,101886.00
2023-02-12T00:56:00.561Z,101885.16
2023-02-12T00:58:27.711Z,101883.53
2023-02-12T01:00:55.020Z,101886.00
2023-02-12T01:03:22.183Z,101884.28
2023-02-12T01:05:49.040Z,101888.47
2023-02-12T01:08:16.934Z,101888.47
2023-02-12T01:10:44.818Z,101882.56
2023-02-12T01:13:15.675Z,101884.25
2023-02-12T01:15:42.728Z,101881.69
2023-02-12T01:18:09.859Z,101879.97
2023-02-12T01:20:36.667Z,101876.63
2023-02-12T01:23:04.024Z,101882.50
2023-02-12T01:25:30.880Z,101890.13
2023-02-12T01:27:57.693Z,101894.25
2023-02-12T01:30:24.824Z,101891.72
2023-02-12T01:32:51.778Z,101886.59
2023-02-12T01:35:18.869Z,101888.34
2023-02-12T01:37:45.584Z,101880.69
2023-02-12T01:40:17.602Z,101877.41
2023-02-12T01:42:44.368Z,101870.56
2023-02-12T01:45:14.036Z,101875.66
2023-02-12T01:47:45.419Z,101873.94
2023-02-12T01:50:19.074Z,101866.38
2023-02-12T01:52:55.340Z,101857.00
2023-02-12T01:55:22.610Z,101863.78
2023-02-12T01:57:49.936Z,101866.38
2023-02-12T02:00:24.640Z,101864.72
2023-02-12T02:03:01.934Z,101868.91
2023-02-12T02:05:59.573Z,101857.88
2023-02-12T02:08:26.533Z,101862.81
2023-02-12T02:10:53.266Z,101866.25
2023-02-12T02:13:38.897Z,101867.84
2023-02-12T02:16:28.046Z,101866.06
2023-02-12T02:19:10.764Z,101861.78
2023-02-12T02:22:17.342Z,101856.66
2023-02-12T02:25:15.030Z,101857.41
2023-02-12T02:28:17.005Z,101857.38
2023-02-12T02:30:54.337Z,101853.91
2023-02-12T02:33:47.006Z,101856.53
2023-02-12T02:36:57.957Z,101854.81
2023-02-12T02:39:47.616Z,101858.06
2023-02-12T02:42:34.899Z,101859.75
2023-02-12T02:45:21.157Z,101846.22
2023-02-12T02:48:24.706Z,101849.63
2023-02-12T02:51:04.524Z,101855.44
2023-02-12T02:53:58.287Z,101856.38
2023-02-12T02:56:27.823Z,101852.09
2023-02-12T02:59:05.463Z,101854.69
2023-02-12T03:01:39.277Z,101849.56
2023-02-12T03:04:23.862Z,101844.63
2023-02-12T03:07:06.328Z,101841.19
2023-02-12T03:09:41.548Z,101842.09
2023-02-12T03:12:21.518Z,101844.66
2023-02-12T03:14:58.262Z,101841.25
2023-02-12T03:17:35.709Z,101835.28
2023-02-12T03:20:29.257Z,101845.41
2023-02-12T03:23:11.164Z,101843.59
2023-02-12T03:26:15.363Z,101846.06
2023-02-12T03:28:42.189Z,101845.13
2023-02-12T03:32:18.619Z,101843.41
2023-02-12T03:35:05.013Z,101847.44
2023-02-12T03:37:55.992Z,101844.06
2023-02-12T03:40:37.676Z,101837.28
2023-02-12T03:43:18.106Z,101845.84
2023-02-12T03:46:03.257Z,101845.00
2023-02-12T03:48:44.632Z,101839.09
2023-02-12T03:51:30.247Z,101833.22
2023-02-12T03:53:58.219Z,101842.47
2023-02-12T03:56:37.283Z,101853.53
2023-02-12T03:59:05.755Z,101850.19
2023-02-12T04:01:35.047Z,101840.91
2023-02-12T04:04:07.423Z,101840.91
2023-02-12T04:06:34.639Z,101838.41
2023-02-12T04:09:08.726Z,101846.03
2023-02-12T04:11:44.250Z,101844.38
2023-02-12T04:14:42.338Z,101844.38
2023-02-12T04:17:40.222Z,101848.50
2023-02-12T04:20:26.919Z,101850.19
2023-02-12T04:23:23.497Z,101860.34
2023-02-12T04:26:08.354Z,101859.44
2023-02-12T04:29:11.713Z,101861.94
2023-02-12T04:32:16.897Z,101863.56
2023-02-12T04:35:02.743Z,101870.34
2023-02-12T04:37:45.172Z,101865.28
2023-02-12T04:40:19.332Z,101876.34
2023-02-12T04:42:49.988Z,101880.59
2023-02-12T04:45:25.826Z,101880.66
2023-02-12T04:47:52.997Z,101875.63
2023-02-12T04:50:20.480Z,101887.44
2023-02-12T04:52:47.280Z,101883.19
2023-02-12T04:55:14.998Z,101889.13
2023-02-12T04:57:41.818Z,101878.16
2023-02-12T05:00:12.806Z,101868.81
2023-02-12T05:02:39.849Z,101865.50
2023-02-12T05:05:06.965Z,101871.34
2023-02-12T05:07:33.769Z,101862.94
2023-02-12T05:10:00.529Z,101864.69
2023-02-12T05:12:27.257Z,101866.41
2023-02-12T05:14:53.975Z,101869.78
2023-02-12T05:17:25.248Z,101866.34
2023-02-12T05:19:52.086Z,101873.88
2023-02-12T05:22:18.955Z,101865.41
2023-02-12T05:24:45.708Z,101876.34
2023-02-12T05:27:12.476Z,101865.34
2023-02-12T05:29:39.306Z,101884.75
2023-02-12T05:32:06.901Z,101878.03
2023-02-12T05:34:35.759Z,101881.38
2023-02-12T05:37:02.643Z,101877.13
2023-02-12T05:39:29.505Z,101889.81
2023-02-12T05:41:56.386Z,101872.03
2023-02-12T05:44:23.121Z,101877.91
2023-02-12T05:46:49.915Z,101882.13
2023-02-12T05:49:16.666Z,101876.13
2023-02-12T05:51:43.427Z,101887.06
2023-02-12T05:54:10.945Z,101881.16
2023-02-12T05:56:45.312Z,101882.81
2023-02-12T05:59:17.224Z,101886.97
2023-02-12T06:01:46.793Z,101884.34
2023-02-12T06:04:24.448Z,101890.16
2023-02-12T06:06:53.085Z,101888.47
2023-02-12T06:09:20.206Z,101892.75
2023-02-12T06:11:47.024Z,101893.53
2023-02-12T06:14:19.904Z,101886.75
2023-02-12T06:16:51.413Z,101893.47
2023-02-12T06:19:20.125Z,101891.72
2023-02-12T06:21:47.862Z,101896.75
2023-02-12T06:24:17.228Z,101892.53
2023-02-12T06:26:44.490Z,101901.75
2023-02-12T06:29:13.117Z,101892.44
2023-02-12T06:31:39.938Z,101890.75
2023-02-12T06:34:10.372Z,101891.63
2023-02-12T06:36:40.578Z,101895.94
2023-02-12T06:39:08.510Z,101898.47
2023-02-12T06:41:35.378Z,101898.53
2023-02-12T06:44:02.118Z,101904.47
2023-02-12T06:46:28.922Z,101908.75
2023-02-12T06:48:58.643Z,101905.41
2023-02-12T06:51:27.694Z,101902.88
2023-02-12T06:53:56.298Z,101908.00
2023-02-12T06:56:25.551Z,101908.00
2023-02-12T06:58:56.748Z,101913.00
2023-02-12T07:01:28.093Z,101909.69
2023-02-12T07:03:58.588Z,101918.13
2023-02-12T07:06:27.265Z,101914.78
2023-02-12T07:08:55.951Z,101919.06
2023-02-12T07:11:38.077Z,101923.28
2023-02-12T07:14:06.786Z,101924.22
2023-02-12T07:16:33.577Z,101926.75
2023-02-12T07:19:00.381Z,101921.72
2023-02-12T07:21:27.268Z,101934.53
2023-02-12T07:23:54.088Z,101930.34
2023-02-12T07:26:22.197Z,101927.88
2023-02-12T07:28:50.853Z,101936.34
2023-02-12T07:31:23.996Z,101940.59
2023-02-12T07:33:56.162Z,101942.34
2023-02-12T07:36:25.240Z,101946.66
2023-02-12T07:38:52.165Z,101945.88
2023-02-12T07:41:24.981Z,101948.44
2023-02-12T07:44:03.501Z,101946.00
2023-02-12T07:46:34.097Z,101954.50
2023-02-12T07:49:05.341Z,101955.41
2023-02-12T07:51:34.977Z,101949.50
2023-02-12T07:54:03.087Z,101953.78
2023-02-12T07:56:35.094Z,101962.31
2023-02-12T07:59:10.096Z,101948.84
2023-02-12T08:01:41.006Z,101954.75
2023-02-12T08:04:13.320Z,101949.78
2023-02-12T08:06:44.933Z,101955.78
2023-02-12T08:09:16.780Z,101952.53
2023-02-12T08:11:44.888Z,101952.63
2023-02-12T08:14:14.954Z,101960.38
2023-02-12T08:16:44.394Z,101963.84
2023-02-12T08:19:19.491Z,101956.34
2023-02-12T08:21:56.391Z,101958.06
2023-02-12T08:24:24.411Z,101956.41
2023-02-12T08:26:51.827Z,101959.88
2023-02-12T08:29:24.057Z,101961.63
2023-02-12T08:31:57.065Z,101954.94
2023-02-12T08:34:33.734Z,101959.25
2023-02-12T08:37:01.223Z,101953.41
2023-02-12T08:39:30.157Z,101959.50
2023-02-12T08:41:59.407Z,101960.47
2023-02-12T08:44:26.382Z,101950.41
2023-02-12T08:46:55.490Z,101956.53
2023-02-12T08:49:29.218Z,101961.78
2023-02-12T08:51:58.706Z,101953.47
2023-02-12T08:54:29.081Z,101952.81
2023-02-12T08:56:59.353Z,101959.78
2023-02-12T08:59:27.067Z,101954.97
2023-02-12T09:01:54.320Z,101960.16
2023-02-12T09:04:28.538Z,101961.16
2023-02-12T09:06:56.644Z,101960.50
2023-02-12T09:09:23.564Z,101959.00
2023-02-12T09:11:50.398Z,101955.81
2023-02-12T09:14:23.483Z,101949.22
2023-02-12T09:16:52.518Z,101957.03
2023-02-12T09:19:19.753Z,101954.69
2023-02-12T09:21:55.208Z,101960.00
2023-02-12T09:24:22.905Z,101961.03
2023-02-12T09:26:49.609Z,101963.78
2023-02-12T09:29:16.353Z,101965.69
2023-02-12T09:31:43.223Z,101965.84
2023-02-12T09:34:10.131Z,101971.16
2023-02-12T09:36:36.851Z,101973.88
2023-02-12T09:39:05.453Z,101963.84
2023-02-12T09:42:20.379Z,101966.53
2023-02-12T09:45:30.249Z,101966.59
2023-02-12T09:48:45.364Z,101961.53
2023-02-12T09:51:12.871Z,101975.19
2023-02-12T09:53:49.409Z,101968.59
2023-02-12T09:56:21.106Z,101969.53
2023-02-12T09:58:54.136Z,101973.84
2023-02-12T10:01:22.838Z,101986.59
2023-02-12T10:03:52.737Z,101977.44
2023-02-12T10:06:25.896Z,101978.28
2023-02-12T10:09:06.698Z,101980.91
2023-02-12T10:11:43.868Z,101978.44
2023-02-12T10:14:37.244Z,101981.94
2023-02-12T10:17:14.423Z,101991.34
2023-02-12T10:20:23.709Z,101983.72
2023-02-12T10:23:14.860Z,101982.13
2023-02-12T10:26:01.218Z,101976.16
2023-02-12T10:28:40.601Z,101975.34
2023-02-12T10:31:30.488Z,101977.91
2023-02-12T10:33:57.828Z,101972.78
2023-02-12T10:36:45.102Z,101971.97
2023-02-12T10:39:14.400Z,101977.88
2023-02-12T10:41:54.385Z,101970.28
2023-02-12T10:44:21.376Z,101975.41
2023-02-12T10:46:48.278Z,101978.00
2023-02-12T10:49:18.678Z,101977.22
2023-02-12T10:52:44.973Z,101972.16
2023-02-12T10:55:30.453Z,101984.94
2023-02-12T10:58:00.159Z,101979.84
2023-02-12T11:00:32.708Z,101980.75
2023-02-12T11:03:13.336Z,101984.16
2023-02-12T11:05:43.554Z,101982.53
2023-02-12T11:08:35.985Z,101980.03
2023-02-12T11:11:07.462Z,101980.06
2023-02-12T11:13:35.893Z,101975.13
2023-02-12T11:16:03.497Z,101972.75
2023-02-12T11:18:33.433Z,101961.91
2023-02-12T11:21:08.857Z,101957.00
2023-02-12T11:23:42.574Z,101960.63
2023-02-12T11:26:18.699Z,101952.25
2023-02-12T11:29:18.958Z,101949.69
2023-02-12T11:32:08.306Z,101934.34
2023-02-12T11:34:36.563Z,101943.75
2023-02-12T11:37:05.078Z,101940.44
2023-02-12T11:39:40.227Z,101938.00
2023-02-12T11:42:19.869Z,101933.81
2023-02-12T11:44:58.804Z,101931.31
2023-02-12T11:47:36.200Z,101929.69
2023-02-12T11:50:30.591Z,101930.63
2023-02-12T11:53:08.025Z,101934.13
2023-02-12T11:55:40.350Z,101929.06
2023-02-12T11:58:13.142Z,101923.16
2023-02-12T12:00:55.094Z,101924.16
2023-02-12T12:03:34.173Z,101918.25
2023-02-12T12:06:39.045Z,101908.91
2023-02-12T12:09:29.889Z,101909.75
2023-02-12T12:12:27.586Z,101914.91
2023-02-12T12:15:32.286Z,101904.72
2023-02-12T12:18:52.683Z,101897.88
2023-02-12T12:22:21.421Z,101890.25
2023-02-12T12:25:19.817Z,101891.91
2023-02-12T12:28:29.044Z,101877.41
2023-02-12T12:31:17.012Z,101878.19
2023-02-12T12:33:53.643Z,101873.94
2023-02-12T12:36:26.130Z,101880.75
2023-02-12T12:39:28.872Z,101883.34
2023-02-12T12:42:33.883Z,101878.88
2023-02-12T12:45:31.202Z,101873.59
2023-02-12T12:48:13.402Z,101872.56
2023-02-12T12:51:13.802Z,101868.88
2023-02-12T12:54:00.836Z,101872.81
2023-02-12T12:57:02.620Z,101868.41
2023-02-12T12:59:50.984Z,101867.47
2023-02-12T13:03:01.811Z,101863.00
2023-02-12T13:05:59.557Z,101864.56
2023-02-12T13:09:04.625Z,101851.03
2023-02-12T13:12:11.856Z,101851.91
2023-02-12T13:14:56.669Z,101853.66
2023-02-12T13:17:36.812Z,101845.22
2023-02-12T13:20:20.534Z,101841.88
2023-02-12T13:22:59.916Z,101838.50
2023-02-12T13:26:04.077Z,101843.53
2023-02-12T13:28:38.254Z,101841.78
2023-02-12T13:31:31.914Z,101837.47
2023-02-12T13:34:04.335Z,101833.09
2023-02-12T13:36:33.066Z,101834.75
2023-02-12T13:39:15.558Z,101827.91
2023-02-12T13:41:57.866Z,101829.56
2023-02-12T13:44:45.612Z,101827.91
2023-02-12T13:47:37.104Z,101824.50
2023-02-12T13:50:24.181Z,101825.44
2023-02-12T13:53:03.833Z,101819.56
2023-02-12T13:56:27.954Z,101823.81
2023-02-12T13:58:56.298Z,101815.28
2023-02-12T14:01:35.588Z,101814.50
2023-02-12T14:04:21.209Z,101812.81
2023-02-12T14:07:06.538Z,101806.84
2023-02-12T14:09:46.755Z,101809.38
2023-02-12T14:12:24.860Z,101806.84
2023-02-12T14:15:34.724Z,101809.34
2023-02-12T14:18:36.925Z,101810.13
2023-02-12T14:21:12.321Z,101816.03
2023-02-12T14:23:45.816Z,101817.72
2023-02-12T14:26:17.745Z,101815.16
2023-02-12T14:29:18.484Z,101813.41
2023-02-12T14:31:45.329Z,101821.88
2023-02-12T14:34:12.013Z,101815.06
2023-02-12T14:36:43.772Z,101814.25
2023-02-12T14:39:19.454Z,101815.88
2023-02-12T14:42:12.504Z,101812.34
2023-02-12T14:44:47.753Z,101811.41
2023-02-12T14:47:34.343Z,101806.28
2023-02-12T14:50:42.821Z,101807.13
2023-02-12T14:53:29.218Z,101810.56
2023-02-12T14:55:58.011Z,101808.84
2023-02-12T14:58:28.306Z,101811.50
2023-02-12T15:01:00.253Z,101802.19
2023-02-12T15:03:43.097Z,101814.88
2023-02-12T15:06:27.861Z,101809.75
2023-02-12T15:09:04.296Z,101812.25
2023-02-12T15:11:43.579Z,101813.06
2023-02-12T15:14:27.256Z,101819.00
2023-02-12T15:17:18.044Z,101818.16
2023-02-12T15:20:20.018Z,101809.63
2023-02-12T15:22:47.273Z,101809.63
2023-02-12T15:25:29.905Z,101815.59
2023-02-12T15:28:02.372Z,101806.25
2023-02-12T15:30:36.331Z,101814.69
2023-02-12T15:33:06.600Z,101805.38
2023-02-12T15:35:38.134Z,101802.84
2023-02-12T15:38:07.606Z,101801.97
2023-02-12T15:40:35.094Z,101798.59
2023-02-12T15:43:07.338Z,101803.72
2023-02-12T15:45:36.598Z,101800.31
2023-02-12T15:48:09.350Z,101801.16
2023-02-12T15:50:45.694Z,101796.91
2023-02-12T15:53:14.269Z,101804.50
2023-02-12T15:55:45.415Z,101791.75
2023-02-12T15:58:45.258Z,101789.94
2023-02-12T16:01:25.070Z,101791.50
2023-02-12T16:03:57.139Z,101780.38
2023-02-12T16:06:26.833Z,101779.44
2023-02-12T16:09:05.646Z,101778.53
2023-02-12T16:11:34.337Z,101775.91
2023-02-12T16:14:07.586Z,101777.56
2023-02-12T16:16:48.878Z,101785.09
2023-02-12T16:19:37.021Z,101779.06
2023-02-12T16:22:19.459Z,101776.44
2023-02-12T16:24:50.883Z,101782.28
2023-02-12T16:27:23.810Z,101786.44
2023-02-12T16:30:01.432Z,101790.59
2023-02-12T16:32:38.742Z,101786.22
2023-02-12T16:35:11.319Z,101783.63
2023-02-12T16:37:37.967Z,101788.69
2023-02-12T16:40:13.513Z,101788.63
2023-02-12T16:42:58.372Z,101790.25
2023-02-12T16:45:26.322Z,101788.53
2023-02-12T16:48:05.195Z,101786.00
2023-02-12T16:50:35.764Z,101790.22
2023-02-12T16:53:22.367Z,101791.00
2023-02-12T16:55:49.819Z,101785.00
2023-02-12T16:58:16.579Z,101789.22
2023-02-12T17:00:43.409Z,101798.50
2023-02-12T17:03:14.439Z,101792.59
2023-02-12T17:05:45.242Z,101795.06
2023-02-12T17:08:19.793Z,101799.16
2023-02-12T17:10:48.119Z,101802.25
2023-02-12T17:13:15.982Z,101791.94
2023-02-12T17:15:54.384Z,101796.09
2023-02-12T17:18:22.298Z,101787.53
2023-02-12T17:21:03.407Z,101790.84
2023-02-12T17:23:31.371Z,101786.53
2023-02-12T17:25:58.446Z,101786.47
2023-02-12T17:28:25.612Z,101781.22
2023-02-12T17:30:53.669Z,101783.63
2023-02-12T17:33:20.634Z,101785.25
2023-02-12T17:35:47.431Z,101785.97
2023-02-12T17:38:14.320Z,101796.84
2023-02-12T17:40:41.114Z,101800.19
2023-02-12T17:43:08.209Z,101796.78
2023-02-12T17:45:35.042Z,101800.06
2023-02-12T17:48:01.946Z,101800.88
2023-02-12T17:50:28.908Z,101803.41
2023-02-12T17:52:55.761Z,101803.28
2023-02-12T17:55:22.527Z,101795.59
2023-02-12T17:57:54.474Z,101795.50
2023-02-12T18:00:22.916Z,101807.31
2023-02-12T18:02:51.855Z,101804.72
2023-02-12T18:05:18.752Z,101799.63
2023-02-12T18:07:45.447Z,101797.03
2023-02-12T18:10:13.004Z,101797.84
2023-02-12T18:12:40.498Z,101797.78
2023-02-12T18:15:09.356Z,101794.31
2023-02-12T18:17:36.955Z,101794.28
2023-02-12T18:20:04.578Z,101795.88
2023-02-12T18:22:34.562Z,101794.91
2023-02-12T18:25:01.332Z,101789.75
2023-02-12T18:27:28.062Z,101796.44
2023-02-12T18:29:56.861Z,101789.50
2023-02-12T18:32:24.392Z,101785.25
2023-02-12T18:34:51.597Z,101788.59
2023-02-12T18:37:18.421Z,101786.75
2023-02-12T18:39:45.238Z,101789.25
2023-02-12T18:42:11.999Z,101791.75
2023-02-12T18:44:38.833Z,101781.41
2023-02-12T18:47:05.593Z,101783.91
2023-02-12T18:49:32.316Z,101782.16
2023-02-12T18:51:59.086Z,101786.31
2023-02-12T18:54:25.901Z,101779.47
2023-02-12T18:56:53.552Z,101780.31
2023-02-12T18:59:21.726Z,101777.63
2023-02-12T19:01:50.813Z,101773.31
2023-02-12T19:04:20.585Z,101775.78
2023-02-12T19:06:54.128Z,101776.56
2023-02-12T19:09:24.289Z,101780.72
2023-02-12T19:11:55.113Z,101777.31
2023-02-12T19:14:23.798Z,101781.50
2023-02-12T19:16:51.291Z,101774.66
2023-02-12T19:19:20.999Z,101781.38
2023-02-12T19:21:47.918Z,101779.59
2023-02-12T19:24:16.243Z,101779.56
2023-02-12T19:26:44.318Z,101773.50
2023-02-12T19:29:12.779Z,101779.34
2023-02-12T19:31:44.417Z,101768.16
2023-02-12T19:34:23.116Z,101773.03
2023-02-12T19:36:50.241Z,101770.28
2023-02-12T19:39:21.478Z,101770.94
2023-02-12T19:41:49.483Z,101763.06
2023-02-12T19:44:20.844Z,101756.84
2023-02-12T19:46:48.712Z,101762.59
2023-02-12T19:49:21.805Z,101764.06
2023-02-12T19:51:49.831Z,101768.00
2023-02-12T19:54:19.252Z,101768.59
2023-02-12T19:56:46.643Z,101768.44
2023-02-12T19:59:17.350Z,101759.78
2023-02-12T20:01:45.330Z,101756.25
2023-02-12T20:04:14.647Z,101756.06
2023-02-12T20:06:43.390Z,101752.53
2023-02-12T20:09:13.291Z,101760.78
2023-02-12T20:11:40.614Z,101765.66
2023-02-12T20:14:10.721Z,101758.72
2023-02-12T20:16:41.507Z,101759.44
2023-02-12T20:19:31.720Z,101761.75
2023-02-12T20:22:01.518Z,101765.78
2023-02-12T20:24:31.785Z,101753.84
2023-02-12T20:27:00.518Z,101754.50
2023-02-12T20:29:27.927Z,101759.47
2023-02-12T20:31:54.986Z,101755.06
2023-02-12T20:34:23.246Z,101758.34
2023-02-12T20:36:49.996Z,101759.00
2023-02-12T20:39:19.966Z,101764.00
2023-02-12T20:41:47.521Z,101774.81
2023-02-12T20:44:19.986Z,101769.63
2023-02-12T20:46:49.457Z,101759.41
2023-02-12T20:49:19.550Z,101766.91
2023-02-12T20:51:50.227Z,101758.38
2023-02-12T20:54:17.220Z,101764.97
2023-02-12T20:56:44.182Z,101762.41
2023-02-12T20:59:11.790Z,101759.81
2023-02-12T21:01:41.574Z,101760.63
2023-02-12T21:04:13.610Z,101758.78
2023-02-12T21:06:41.586Z,101758.69
2023-02-12T21:09:10.833Z,101765.34
2023-02-12T21:11:40.862Z,101756.78
2023-02-12T21:14:21.153Z,101765.09
2023-02-12T21:16:48.862Z,101770.94
2023-02-12T21:19:16.153Z,101762.41
2023-02-12T21:21:47.731Z,101757.34
2023-02-12T21:24:19.504Z,101757.31
2023-02-12T21:26:46.270Z,101758.09
2023-02-12T21:29:13.638Z,101756.31
2023-02-12T21:31:47.314Z,101753.75
2023-02-12T21:34:19.163Z,101754.47
2023-02-12T21:36:47.967Z,101758.66
2023-02-12T21:39:25.952Z,101758.59
2023-02-12T21:42:00.145Z,101759.34
2023-02-12T21:44:27.571Z,101760.19
2023-02-12T21:46:55.010Z,101767.66
2023-02-12T21:49:26.359Z,101759.25
2023-02-12T21:52:01.952Z,101762.47
2023-02-12T21:54:30.317Z,101758.16
2023-02-12T21:56:57.692Z,101759.00
2023-02-12T21:59:24.877Z,101755.59
2023-02-12T22:01:55.406Z,101753.84
2023-02-12T22:04:22.299Z,101755.47
2023-02-12T22:06:52.473Z,101750.28
2023-02-12T22:09:22.051Z,101755.22
2023-02-12T22:11:49.416Z,101753.44
2023-02-12T22:14:18.145Z,101749.94
2023-02-12T22:16:45.798Z,101751.47
2023-02-12T22:19:13.070Z,101748.03
2023-02-12T22:21:42.072Z,101750.41
2023-02-12T22:24:12.934Z,101740.28
2023-02-12T22:26:40.031Z,101746.06
2023-02-12T22:29:10.583Z,101738.47
2023-02-12T22:31:40.577Z,101746.84
2023-02-12T22:34:13.541Z,101752.78
2023-02-12T22:36:41.559Z,101753.69
2023-02-12T22:39:09.696Z,101760.47
2023-02-12T22:41:36.575Z,101763.03
2023-02-12T22:44:07.119Z,101758.88
2023-02-12T22:46:35.983Z,101758.81
2023-02-12T22:49:02.796Z,101763.78
2023-02-12T22:51:32.074Z,101765.41
2023-02-12T22:53:59.018Z,101769.53
2023-02-12T22:56:26.725Z,101765.28
2023-02-12T22:58:59.776Z,101764.41
2023-02-12T23:01:28.498Z,101767.75
2023-02-12T23:03:55.777Z,101771.09
2023-02-12T23:06:29.855Z,101767.69
2023-02-12T23:09:01.383Z,101771.00
2023-02-12T23:11:31.149Z,101765.94
2023-02-12T23:13:58.857Z,101769.31
2023-02-12T23:16:25.980Z,101765.72
2023-02-12T23:19:01.549Z,101768.94
2023-02-12T23:21:31.120Z,101756.84
2023-02-12T23:23:59.044Z,101760.84
2023-02-12T23:26:27.507Z,101749.69
2023-02-12T23:28:55.054Z,101749.63
2023-02-12T23:31:22.240Z,101747.00
2023-02-12T23:33:49.155Z,101752.78
2023-02-12T23:36:16.026Z,101745.06
2023-02-12T23:38:42.776Z,101752.56
2023-02-12T23:41:09.608Z,101754.19
2023-02-12T23:43:36.342Z,101750.66
2023-02-12T23:46:03.957Z,101744.69
2023-02-12T23:48:30.807Z,101749.66
2023-02-12T23:50:57.951Z,101747.09
2023-02-12T23:53:24.883Z,101740.31
2023-02-12T23:55:51.874Z,101734.34
2023-02-12T23:58:19.197Z,101738.47
